Time;durP1;ratioP1;P1;durP2;ratioP2;P2;SDS_P1;SDS_P2;PMS_P1;PMS_P2;Temp;Humidity;BMP_temperature;BMP_pressure;BME280_temperature;BME280_humidity;BME280_pressure;Samples;Min_cycle;Max_cycle;Signal;HPM_P1;HPM_P2
2023/11/08 00:02:11;;;;;;;5.40;1.13;;;;;;;-145.69;60.66;52283.97;5116800;28;20193;-83
2023/11/08 00:04:39;;;;;;;3.27;1.27;;;;;;;-145.69;59.86;52282.00;5116336;28;20201;-82
2023/11/08 00:07:05;;;;;;;3.47;1.30;;;;;;;-145.69;59.37;52289.91;5116767;28;20233;-83
2023/11/08 00:09:34;;;;;;;2.37;1.10;;;;;;;-145.69;59.17;52297.84;5116709;28;20193;-83
2023/11/08 00:12:00;;;;;;;1.30;0.80;;;;;;;-145.69;58.25;52278.03;5119454;28;20201;-83
2023/11/08 00:14:27;;;;;;;3.47;1.17;;;;;;;-145.69;59.08;52321.59;5118566;28;20205;-83
2023/11/08 00:16:54;;;;;;;2.03;1.03;;;;;;;-145.69;59.35;52278.03;5115933;28;20190;-83
2023/11/08 00:19:21;;;;;;;7.13;1.00;;;;;;;-145.69;59.33;52252.28;5115555;28;20201;-83
2023/11/08 00:21:49;;;;;;;4.87;1.20;;;;;;;-145.69;59.56;52297.84;5114951;28;20224;-83
2023/11/08 00:24:16;;;;;;;3.87;1.20;;;;;;;-145.69;58.83;52299.81;5116103;28;20201;-83
2023/11/08 00:26:42;;;;;;;3.43;1.10;;;;;;;-145.69;59.56;52282.00;5117520;28;20719;-83
2023/11/08 00:29:09;;;;;;;2.27;1.00;;;;;;;-145.69;59.83;52289.91;5117645;28;20247;-84
2023/11/08 00:31:35;;;;;;;2.73;0.90;;;;;;;-145.69;59.87;52258.22;5118136;28;20198;-83
2023/11/08 00:34:02;;;;;;;1.87;0.90;;;;;;;-145.69;59.17;52285.97;5118006;28;20712;-83
2023/11/08 00:36:29;;;;;;;3.13;0.80;;;;;;;-145.69;59.49;52333.47;5116986;28;20208;-83
2023/11/08 00:38:57;;;;;;;5.97;1.10;;;;;;;-145.69;59.65;52274.06;5116490;28;20205;-83
2023/11/08 00:41:24;;;;;;;3.07;1.10;;;;;;;-145.69;59.99;52295.84;5116290;28;20193;-83
2023/11/08 00:43:55;;;;;;;3.97;1.20;;;;;;;-145.69;60.46;52349.31;5115661;28;20266;-82
2023/11/08 00:46:22;;;;;;;3.57;1.10;;;;;;;-145.69;60.99;52329.53;5117713;28;20215;-82
2023/11/08 00:48:48;;;;;;;8.23;1.30;;;;;;;-145.69;60.74;52317.66;5115553;28;20232;-83
2023/11/08 00:51:15;;;;;;;3.27;1.20;;;;;;;-145.69;60.92;52295.84;5117231;28;20208;-83
2023/11/08 00:53:41;;;;;;;2.57;1.00;;;;;;;-145.69;61.93;52297.84;5116462;28;20204;-83
2023/11/08 00:56:09;;;;;;;5.70;1.30;;;;;;;-145.69;62.26;52331.50;5116534;28;20660;-82
2023/11/08 00:58:36;;;;;;;7.47;1.27;;;;;;;-145.69;62.89;52317.66;5117852;28;20211;-83
2023/11/08 01:01:03;;;;;;;5.90;1.43;;;;;;;-145.69;62.64;52325.56;5117500;28;20198;-83
2023/11/08 01:03:29;;;;;;;8.13;1.27;;;;;;;-145.69;62.74;52317.66;5117295;28;20193;-83
2023/11/08 01:05:56;;;;;;;3.47;1.20;;;;;;;-145.69;63.68;52295.84;5119315;28;20700;-82
2023/11/08 01:08:23;;;;;;;2.07;1.23;;;;;;;-145.69;62.74;52293.88;5118448;28;20220;-82
2023/11/08 01:10:51;;;;;;;4.70;1.03;;;;;;;-145.69;63.86;52309.72;5116175;28;20660;-83
2023/11/08 01:13:20;;;;;;;6.63;1.20;;;;;;;-145.69;63.51;52299.81;5115129;28;20284;-83
2023/11/08 01:15:47;;;;;;;6.17;1.13;;;;;;;-145.69;63.91;52323.59;5099628;28;20604;-83
2023/11/08 01:18:14;;;;;;;10.20;1.67;;;;;;;-145.69;63.37;52335.47;5115672;28;20204;-83
2023/11/08 01:20:41;;;;;;;3.57;1.13;;;;;;;-145.69;64.54;52321.59;5114859;28;20200;-83
2023/11/08 01:23:08;;;;;;;3.73;1.50;;;;;;;-145.69;64.64;52319.63;5113915;28;20208;-83
2023/11/08 01:25:34;;;;;;;12.03;1.60;;;;;;;-145.69;64.40;52319.63;5114685;28;20212;-83
2023/11/08 01:28:01;;;;;;;3.60;1.30;;;;;;;-145.69;64.68;52341.41;5115529;28;20217;-83
2023/11/08 01:30:29;;;;;;;3.27;1.47;;;;;;;-145.69;64.94;52325.56;5114130;28;20194;-83
2023/11/08 01:32:55;;;;;;;5.13;1.50;;;;;;;-145.69;64.05;52301.81;5113671;28;20208;-83
2023/11/08 01:35:22;;;;;;;1.80;1.23;;;;;;;-145.69;64.01;52293.88;5114516;28;20541;-84
2023/11/08 01:37:49;;;;;;;4.10;1.70;;;;;;;-145.69;64.66;52335.47;5114382;28;20269;-83
2023/11/08 01:40:18;;;;;;;5.33;1.53;;;;;;;-145.69;65.46;52301.81;5114605;28;20194;-84
2023/11/08 01:42:45;;;;;;;7.20;1.50;;;;;;;-145.69;65.80;52301.81;5116578;28;20197;-83
2023/11/08 01:45:11;;;;;;;7.57;2.00;;;;;;;-145.69;65.48;52333.47;5114787;28;20197;-83
2023/11/08 01:47:40;;;;;;;4.33;1.50;;;;;;;-145.69;64.82;52333.47;5115041;28;20225;-83
2023/11/08 01:50:09;;;;;;;5.17;1.87;;;;;;;-145.69;65.16;52282.00;5114077;28;20197;-83
2023/11/08 01:52:37;;;;;;;5.13;1.60;;;;;;;-145.69;65.15;52289.91;5115273;28;20201;-83
2023/11/08 01:55:05;;;;;;;1.20;1.10;;;;;;;-145.69;64.83;52295.84;5114640;28;20212;-83
2023/11/08 01:57:32;;;;;;;3.60;1.30;;;;;;;-145.69;64.59;52297.84;5113827;28;20568;-83
2023/11/08 01:59:59;;;;;;;5.43;1.70;;;;;;;-145.69;65.30;52307.75;5113622;28;20205;-83
2023/11/08 02:02:25;;;;;;;3.67;1.30;;;;;;;-145.69;64.75;52317.66;5113914;28;20201;-83
2023/11/08 02:04:54;;;;;;;4.83;1.57;;;;;;;-145.69;64.12;52317.66;5114836;28;20660;-82
2023/11/08 02:07:21;;;;;;;7.13;1.53;;;;;;;-145.69;64.55;52268.13;5115188;28;20564;-83
2023/11/08 02:09:49;;;;;;;3.43;1.30;;;;;;;-145.69;64.63;52289.91;5116724;28;20277;-83
2023/11/08 02:12:16;;;;;;;6.07;1.53;;;;;;;-145.69;65.05;52321.59;5115863;28;20205;-82
2023/11/08 02:15:01;;;;;;;3.80;1.30;;;;;;;-145.69;65.48;52345.38;5115615;28;20648;-83
2023/11/08 02:17:27;;;;;;;3.23;1.30;;;;;;;-145.69;65.83;52319.63;5114977;28;20197;-83
2023/11/08 02:19:55;;;;;;;4.50;1.37;;;;;;;-145.69;65.88;52325.56;5114765;28;20324;-83
2023/11/08 02:22:23;;;;;;;4.60;1.47;;;;;;;-145.69;65.78;52351.31;5114284;28;20212;-83
2023/11/08 02:24:51;;;;;;;2.77;1.40;;;;;;;-145.69;65.69;52301.81;5114423;28;20236;-83
2023/11/08 02:27:18;;;;;;;7.07;1.70;;;;;;;-145.69;65.36;52333.47;5115022;28;20201;-83
2023/11/08 02:29:44;;;;;;;3.57;1.47;;;;;;;-145.69;65.81;52329.53;5115053;28;20201;-83
2023/11/08 02:32:11;;;;;;;10.33;1.50;;;;;;;-145.69;65.71;52309.72;5116895;28;20242;-83
2023/11/08 02:34:37;;;;;;;2.00;1.20;;;;;;;-145.69;65.57;52276.06;5116209;28;20231;-83
2023/11/08 02:37:04;;;;;;;5.10;1.50;;;;;;;-145.69;65.49;52307.75;5115183;28;20206;-83
2023/11/08 02:39:31;;;;;;;4.03;1.57;;;;;;;-145.69;65.41;52333.47;5115388;28;20243;-82
2023/11/08 02:41:59;;;;;;;6.87;1.60;;;;;;;-145.69;65.18;52331.50;5115210;28;20208;-83
2023/11/08 02:44:26;;;;;;;1.57;1.10;;;;;;;-145.69;64.56;52333.47;5117365;28;20224;-83
2023/11/08 02:46:52;;;;;;;4.53;1.70;;;;;;;-145.69;65.17;52309.72;5118000;28;20566;-83
2023/11/08 02:49:19;;;;;;;5.57;1.67;;;;;;;-145.69;65.38;52323.59;5118200;28;20221;-83
2023/11/08 02:51:46;;;;;;;7.13;1.40;;;;;;;-145.69;65.43;52335.47;5117290;28;20205;-83
2023/11/08 02:54:12;;;;;;;6.80;1.30;;;;;;;-145.69;65.94;52351.31;5117420;28;20201;-83
2023/11/08 02:56:40;;;;;;;4.13;1.53;;;;;;;-145.69;65.58;52327.53;5117745;28;20656;-83
2023/11/08 02:59:09;;;;;;;9.90;1.33;;;;;;;-145.69;65.82;52329.53;5118602;28;20623;-83
2023/11/08 03:01:37;;;;;;;8.00;1.77;;;;;;;-145.69;64.64;52333.47;5118848;28;20197;-83
2023/11/08 03:04:03;;;;;;;5.10;1.40;;;;;;;-145.69;64.67;52282.00;5117997;28;20208;-83
2023/11/08 03:06:30;;;;;;;6.23;1.40;;;;;;;-145.69;65.32;52341.41;5118975;28;20228;-83
2023/11/08 03:08:56;;;;;;;4.70;1.10;;;;;;;-145.69;65.83;52325.56;5119025;28;20217;-83
2023/11/08 03:11:23;;;;;;;2.53;1.40;;;;;;;-145.69;65.92;52297.84;5121056;28;20201;-82
2023/11/08 03:13:50;;;;;;;3.43;1.10;;;;;;;-145.69;66.05;52323.59;5120238;28;20205;-83
2023/11/08 03:16:17;;;;;;;3.97;1.70;;;;;;;-145.69;66.16;52325.56;5122544;28;20201;-83
2023/11/08 03:18:44;;;;;;;3.63;1.20;;;;;;;-145.69;66.74;52317.66;5120072;28;20723;-83
2023/11/08 03:21:10;;;;;;;5.40;1.53;;;;;;;-145.69;66.48;52333.47;5121509;28;20230;-83
2023/11/08 03:23:38;;;;;;;4.60;1.57;;;;;;;-145.69;66.13;52361.22;5120095;28;20205;-83
2023/11/08 03:26:04;;;;;;;6.90;1.40;;;;;;;-145.69;66.16;52315.66;5119183;28;20204;-83
2023/11/08 03:28:30;;;;;;;5.50;1.40;;;;;;;-145.69;65.93;52323.59;5120233;27;20225;-83
2023/11/08 03:30:57;;;;;;;4.03;1.40;;;;;;;-145.69;66.16;52329.53;5137927;27;20199;-82
2023/11/08 03:33:25;;;;;;;6.50;1.33;;;;;;;-145.69;66.46;52289.91;5120701;27;20196;-83
2023/11/08 03:35:51;;;;;;;2.83;1.17;;;;;;;-145.69;66.11;52289.91;5125938;27;20201;-82
2023/11/08 03:38:18;;;;;;;7.93;1.30;;;;;;;-145.69;66.29;52321.59;5119871;28;20198;-82
2023/11/08 03:40:46;;;;;;;4.10;1.73;;;;;;;-145.69;66.03;52325.56;5122691;28;20209;-82
2023/11/08 03:43:12;;;;;;;2.87;1.40;;;;;;;-145.69;66.02;52321.59;5122091;28;20211;-82
2023/11/08 03:45:39;;;;;;;7.07;1.37;;;;;;;-145.69;65.69;52293.88;5118274;28;20208;-83
2023/11/08 03:48:05;;;;;;;3.47;1.20;;;;;;;-145.69;65.55;52311.69;5116670;28;20213;-84
2023/11/08 03:50:33;;;;;;;3.13;1.20;;;;;;;-145.69;65.44;52299.81;5116742;28;20660;-83
2023/11/08 03:52:59;;;;;;;2.10;1.20;;;;;;;-145.69;65.81;52331.50;5117070;28;20197;-83
2023/11/08 03:55:27;;;;;;;3.23;1.27;;;;;;;-145.69;66.13;52335.47;5116349;28;20586;-82
2023/11/08 03:57:55;;;;;;;3.00;1.53;;;;;;;-145.69;65.76;52305.75;5117458;28;20652;-83
2023/11/08 04:00:24;;;;;;;2.43;1.13;;;;;;;-145.69;66.08;52309.72;5118450;28;20284;-83
2023/11/08 04:02:50;;;;;;;7.00;1.70;;;;;;;-145.69;66.21;52301.81;5118562;28;20261;-83
2023/11/08 04:05:17;;;;;;;3.87;1.20;;;;;;;-145.69;66.06;52307.75;5122255;28;20204;-83
2023/11/08 04:07:45;;;;;;;6.17;1.17;;;;;;;-145.69;65.55;52331.50;5120141;28;20201;-83
2023/11/08 04:10:14;;;;;;;11.37;1.50;;;;;;;-145.69;65.43;52307.75;5122747;28;20211;-83
2023/11/08 04:12:40;;;;;;;3.53;1.10;;;;;;;-145.69;65.42;52282.00;5122522;28;20207;-83
2023/11/08 04:15:08;;;;;;;8.57;1.30;;;;;;;-145.69;65.41;52309.72;5121014;28;20197;-83
2023/11/08 04:17:35;;;;;;;4.00;1.30;;;;;;;-145.69;65.21;52299.81;5118976;28;20249;-83
2023/11/08 04:20:02;;;;;;;7.73;1.77;;;;;;;-145.69;65.07;52317.66;5116077;27;20204;-83
2023/11/08 04:22:29;;;;;;;2.50;1.10;;;;;;;-145.69;64.90;52293.88;5118615;28;20665;-84
2023/11/08 04:24:57;;;;;;;2.13;1.07;;;;;;;-145.69;64.37;52317.66;5118634;28;20197;-83
2023/11/08 04:27:23;;;;;;;4.97;1.20;;;;;;;-145.69;64.21;52325.56;5118092;28;20201;-83
2023/11/08 04:29:50;;;;;;;4.90;1.07;;;;;;;-145.69;64.49;52341.41;5117080;28;20229;-84
2023/11/08 04:32:16;;;;;;;2.13;1.10;;;;;;;-145.69;64.09;52299.81;5115802;28;20201;-83
2023/11/08 04:34:43;;;;;;;4.90;1.33;;;;;;;-145.69;64.63;52313.69;5115173;28;20567;-83
2023/11/08 04:37:11;;;;;;;2.23;1.20;;;;;;;-145.69;64.54;52317.66;5115039;28;20237;-84
2023/11/08 04:39:40;;;;;;;4.87;1.97;;;;;;;-145.69;64.31;52313.69;5116022;28;20284;-83
2023/11/08 04:42:08;;;;;;;5.43;1.10;;;;;;;-145.69;64.72;52307.75;5114960;28;20209;-83
2023/11/08 04:44:34;;;;;;;3.30;1.30;;;;;;;-145.69;65.71;52299.81;5114742;28;20197;-83
2023/11/08 04:47:01;;;;;;;4.00;1.23;;;;;;;-145.69;65.80;52323.59;5114971;28;20206;-83
2023/11/08 04:49:28;;;;;;;3.00;1.30;;;;;;;-145.69;65.58;52293.88;5114668;28;20224;-83
2023/11/08 04:51:54;;;;;;;4.63;1.43;;;;;;;-145.69;65.60;52353.28;5113627;28;20205;-83
2023/11/08 04:54:21;;;;;;;3.47;1.60;;;;;;;-145.69;65.46;52307.75;5114178;28;20194;-83
2023/11/08 04:56:47;;;;;;;6.00;1.63;;;;;;;-145.69;65.86;52355.28;5114425;28;20204;-83
2023/11/08 04:59:15;;;;;;;6.60;1.57;;;;;;;-145.69;66.18;52282.00;5114475;28;20209;-83
2023/11/08 05:01:42;;;;;;;4.60;1.70;;;;;;;-145.69;65.98;52319.63;5114402;28;20201;-83
2023/11/08 05:04:10;;;;;;;3.83;1.70;;;;;;;-145.69;66.48;52349.31;5114345;28;20590;-83
2023/11/08 05:06:36;;;;;;;5.00;1.80;;;;;;;-145.69;66.75;52323.59;5113637;28;20576;-83
2023/11/08 05:09:03;;;;;;;4.47;1.57;;;;;;;-145.69;66.43;52341.41;5114300;28;20346;-83
2023/11/08 05:11:30;;;;;;;7.17;1.77;;;;;;;-145.69;66.90;52285.97;5114326;28;20644;-83
2023/11/08 05:13:56;;;;;;;6.63;1.70;;;;;;;-145.69;66.33;52323.59;5114893;28;20205;-83
2023/11/08 05:16:24;;;;;;;5.73;1.53;;;;;;;-145.69;66.67;52309.72;5114831;28;20197;-82
2023/11/08 05:18:51;;;;;;;3.27;1.30;;;;;;;-145.69;66.36;52317.66;5114418;28;20204;-83
2023/11/08 05:21:19;;;;;;;6.10;1.60;;;;;;;-145.69;66.95;52329.53;5113869;28;20197;-83
2023/11/08 05:23:46;;;;;;;3.70;1.50;;;;;;;-145.69;67.18;52305.75;5113843;28;20210;-82
2023/11/08 05:26:12;;;;;;;4.57;1.73;;;;;;;-145.69;66.71;52317.66;5114350;28;20193;-83
2023/11/08 05:28:39;;;;;;;7.17;1.57;;;;;;;-145.69;66.85;52329.53;5114570;28;20220;-83
2023/11/08 05:31:05;;;;;;;4.37;1.57;;;;;;;-145.69;66.94;52317.66;5115777;28;20197;-83
2023/11/08 05:33:33;;;;;;;5.23;1.50;;;;;;;-145.69;67.50;52327.53;5115913;28;20630;-83
2023/11/08 05:36:00;;;;;;;8.03;1.60;;;;;;;-145.69;67.79;52309.72;5115734;28;20311;-83
2023/11/08 05:38:26;;;;;;;4.47;1.53;;;;;;;-145.69;67.55;52313.69;5115403;28;20204;-83
2023/11/08 05:40:53;;;;;;;8.43;1.60;;;;;;;-145.69;67.54;52283.97;5116343;28;20277;-83
2023/11/08 05:43:21;;;;;;;4.07;1.53;;;;;;;-145.69;67.80;52309.72;5116935;28;20201;-83
2023/11/08 05:45:47;;;;;;;4.10;1.50;;;;;;;-145.69;67.66;52303.78;5116574;28;20197;-83
2023/11/08 05:48:14;;;;;;;6.80;1.43;;;;;;;-145.69;67.01;52325.56;5115190;28;20555;-82
2023/11/08 05:50:43;;;;;;;1.93;1.17;;;;;;;-145.69;67.14;52325.56;5114530;28;20197;-83
2023/11/08 05:53:09;;;;;;;3.53;1.47;;;;;;;-145.69;66.92;52309.72;5113828;28;20644;-83
2023/11/08 05:55:39;;;;;;;2.47;1.20;;;;;;;-145.69;66.95;52301.81;5113849;28;20225;-83
2023/11/08 05:58:06;;;;;;;7.77;1.40;;;;;;;-145.69;67.33;52353.28;5113786;28;20225;-83
2023/11/08 06:00:33;;;;;;;2.53;1.27;;;;;;;-145.69;67.31;52291.91;5113983;28;20197;-83
2023/11/08 06:03:00;;;;;;;4.22;2.00;;;;;;;-145.69;68.75;52297.84;5112792;28;20967;-83
2023/11/08 06:05:28;;;;;;;4.80;1.43;;;;;;;-145.69;68.07;52278.03;5113652;28;20201;-83
2023/11/08 06:07:56;;;;;;;4.40;1.70;;;;;;;-145.69;67.57;52309.72;5114127;28;20204;-83
2023/11/08 06:10:23;;;;;;;8.13;1.70;;;;;;;-145.69;67.64;52293.88;5115378;28;20316;-82
2023/11/08 06:12:49;;;;;;;7.23;1.60;;;;;;;-145.69;67.93;52309.72;5113917;28;20208;-82
2023/11/08 06:15:16;;;;;;;8.83;1.90;;;;;;;-145.69;67.61;52299.81;5113482;28;20205;-83
2023/11/08 06:17:43;;;;;;;7.67;1.87;;;;;;;-145.69;67.40;52315.66;5113490;28;20248;-83
2023/11/08 06:20:11;;;;;;;2.40;1.50;;;;;;;-145.69;67.41;52325.56;5117608;28;20201;-83
2023/11/08 06:22:37;;;;;;;10.40;1.30;;;;;;;-145.69;67.51;52341.41;5117293;28;20197;-83
2023/11/08 06:25:06;;;;;;;8.77;1.30;;;;;;;-145.69;66.56;52297.84;5118695;28;20773;-83
2023/11/08 06:27:32;;;;;;;5.60;1.57;;;;;;;-145.69;66.19;52291.91;5119426;28;20209;-83
2023/11/08 06:29:59;;;;;;;7.90;1.97;;;;;;;-145.69;66.01;52333.47;5119178;28;20232;-83
2023/11/08 06:32:25;;;;;;;1.87;1.20;;;;;;;-145.69;65.98;52301.81;5120105;28;20197;-83
2023/11/08 06:34:52;;;;;;;4.70;1.70;;;;;;;-145.69;65.81;52333.47;5119687;28;20208;-83
2023/11/08 06:37:18;;;;;;;4.50;1.40;;;;;;;-145.69;65.26;52325.56;5119760;28;20198;-83
2023/11/08 06:39:45;;;;;;;8.97;1.60;;;;;;;-145.69;65.45;52317.66;5123343;28;20267;-83
2023/11/08 06:42:13;;;;;;;4.77;1.53;;;;;;;-145.69;65.58;52297.84;5119382;28;20201;-82
2023/11/08 06:44:39;;;;;;;6.27;1.67;;;;;;;-145.69;64.74;52293.88;5119920;28;20209;-83
2023/11/08 06:47:05;;;;;;;3.27;1.20;;;;;;;-145.69;65.17;52311.69;5119322;28;20198;-82
2023/11/08 06:49:32;;;;;;;2.07;1.30;;;;;;;-145.69;66.09;52291.91;5117793;28;20228;-83
2023/11/08 06:51:58;;;;;;;1.70;1.03;;;;;;;-145.69;66.43;52266.16;5116688;28;20193;-83
2023/11/08 06:54:25;;;;;;;1.13;1.03;;;;;;;-145.69;67.02;52285.97;5116995;28;20211;-83
2023/11/08 06:56:51;;;;;;;1.60;1.17;;;;;;;-145.69;66.91;52289.91;5119614;28;20203;-83
2023/11/08 06:59:19;;;;;;;5.93;1.43;;;;;;;-145.69;66.50;52299.81;5118915;28;20564;-83
2023/11/08 07:01:46;;;;;;;4.50;1.73;;;;;;;-145.69;66.12;52268.13;5118337;28;20212;-83
2023/11/08 07:04:12;;;;;;;3.90;1.53;;;;;;;-145.69;65.48;52297.84;5118769;28;20551;-83
2023/11/08 07:06:39;;;;;;;2.90;1.50;;;;;;;-145.69;65.14;52335.47;5118788;28;20251;-83
2023/11/08 07:09:07;;;;;;;3.30;1.47;;;;;;;-145.69;65.31;52317.66;5119765;28;20278;-83
2023/11/08 07:11:33;;;;;;;4.10;1.50;;;;;;;-145.69;65.07;52313.69;5117994;28;20297;-83
2023/11/08 07:13:59;;;;;;;2.27;1.40;;;;;;;-145.69;64.94;52309.72;5116714;28;20197;-83
2023/11/08 07:16:28;;;;;;;4.80;1.60;;;;;;;-145.69;65.09;52285.97;5117149;28;20576;-83
2023/11/08 07:18:55;;;;;;;4.50;2.10;;;;;;;-145.69;64.76;52291.91;5116725;28;20296;-83
2023/11/08 07:21:23;;;;;;;2.70;1.27;;;;;;;-145.69;64.24;52325.56;5116332;28;20656;-84
2023/11/08 07:23:49;;;;;;;2.87;1.30;;;;;;;-145.69;64.26;52297.84;5115853;28;20201;-83
2023/11/08 07:26:16;;;;;;;4.30;1.30;;;;;;;-145.69;64.49;52317.66;5116304;28;20691;-83
2023/11/08 07:28:44;;;;;;;5.93;1.57;;;;;;;-145.69;63.84;52301.81;5115901;28;20606;-83
2023/11/08 07:31:11;;;;;;;2.23;1.43;;;;;;;-145.69;63.72;52278.03;5116039;28;20189;-83
2023/11/08 07:33:39;;;;;;;4.70;1.23;;;;;;;-145.69;64.06;52293.88;5115920;28;20198;-84
2023/11/08 07:36:06;;;;;;;2.70;1.43;;;;;;;-145.69;63.19;52266.16;5116082;28;20208;-83
2023/11/08 07:38:33;;;;;;;2.97;1.33;;;;;;;-145.69;63.27;52278.03;5115859;28;20209;-84
2023/11/08 07:41:01;;;;;;;3.50;1.50;;;;;;;-145.69;62.93;52303.78;5115893;28;20675;-83
2023/11/08 07:43:27;;;;;;;3.80;1.60;;;;;;;-145.69;62.42;52297.84;5116110;28;20270;-84
2023/11/08 07:45:54;;;;;;;2.23;1.37;;;;;;;-145.69;62.12;52276.06;5115828;28;20208;-84
2023/11/08 07:48:20;;;;;;;3.43;1.63;;;;;;;-145.69;61.51;52285.97;5115741;28;20708;-83
2023/11/08 07:50:48;;;;;;;3.03;1.60;;;;;;;-145.69;60.60;52278.03;5115916;28;20589;-83
2023/11/08 07:53:15;;;;;;;4.90;1.70;;;;;;;-145.69;59.93;52278.03;5115527;28;20216;-84
2023/11/08 07:55:41;;;;;;;2.43;1.40;;;;;;;-145.69;60.53;52293.88;5115831;28;20582;-84
2023/11/08 07:58:07;;;;;;;2.83;1.20;;;;;;;-145.69;60.45;52282.00;5116245;28;20556;-83
2023/11/08 08:00:34;;;;;;;1.87;1.10;;;;;;;-145.69;59.44;52272.09;5116477;28;20668;-84
2023/11/08 08:03:01;;;;;;;2.10;1.10;;;;;;;-145.69;57.82;52282.00;5116186;28;20205;-84
2023/11/08 08:05:27;;;;;;;2.90;1.10;;;;;;;-145.69;58.79;52285.97;5116341;28;20202;-84
2023/11/08 08:07:55;;;;;;;1.90;0.97;;;;;;;-145.69;59.10;52250.31;5116812;28;20201;-84
2023/11/08 08:10:25;;;;;;;1.50;1.00;;;;;;;-145.69;59.24;52287.94;5116161;28;20232;-84
2023/11/08 08:12:52;;;;;;;2.63;1.23;;;;;;;-145.69;58.98;52268.13;5118123;28;20204;-83
2023/11/08 08:15:18;;;;;;;2.60;1.00;;;;;;;-145.69;58.55;52287.94;5121217;28;20197;-83
2023/11/08 08:17:46;;;;;;;4.07;1.10;;;;;;;-145.69;59.29;52248.34;5119603;28;20198;-83
2023/11/08 08:20:12;;;;;;;3.43;1.20;;;;;;;-145.69;58.68;52264.16;5119136;27;20246;-83
2023/11/08 08:22:38;;;;;;;1.63;0.97;;;;;;;-145.69;58.54;52285.97;5120959;28;20266;-83
2023/11/08 08:25:09;;;;;;;2.93;1.23;;;;;;;-145.69;58.31;52282.00;5122155;28;20591;-83
2023/11/08 08:27:35;;;;;;;5.07;1.20;;;;;;;-145.69;57.77;52240.41;5121186;28;20197;-83
2023/11/08 08:30:03;;;;;;;3.00;1.13;;;;;;;-145.69;57.17;52262.19;5118593;28;20221;-83
2023/11/08 08:32:30;;;;;;;2.30;1.10;;;;;;;-145.69;57.64;52250.31;5118426;28;20201;-83
2023/11/08 08:34:57;;;;;;;2.87;1.40;;;;;;;-145.69;56.85;52252.28;5118610;28;20193;-83
2023/11/08 08:37:23;;;;;;;6.40;2.60;;;;;;;-145.69;57.73;52252.28;5118747;28;20201;-83
2023/11/08 08:39:49;;;;;;;2.37;1.10;;;;;;;-145.69;57.69;52299.81;5116311;28;20212;-83
2023/11/08 08:42:18;;;;;;;1.60;0.93;;;;;;;-145.69;57.26;52258.22;5117447;28;20576;-83
2023/11/08 08:44:44;;;;;;;1.47;1.10;;;;;;;-145.69;56.76;52268.13;5118218;28;20292;-83
2023/11/08 08:47:11;;;;;;;2.27;1.07;;;;;;;-145.69;56.04;52266.16;5116864;28;20197;-83
2023/11/08 08:49:38;;;;;;;3.23;0.90;;;;;;;-145.69;56.20;52250.31;5119202;28;20221;-84
2023/11/08 08:52:05;;;;;;;1.90;0.93;;;;;;;-145.69;55.67;52264.16;5117692;28;20643;-83
2023/11/08 08:54:32;;;;;;;3.53;0.87;;;;;;;-145.69;55.73;52264.16;5119644;28;20204;-84
2023/11/08 08:57:00;;;;;;;3.70;1.40;;;;;;;-145.69;54.72;52254.28;5119837;28;20201;-84
2023/11/08 08:59:28;;;;;;;5.23;1.60;;;;;;;-145.69;55.06;52238.44;5119071;28;20205;-83
2023/11/08 09:01:55;;;;;;;2.73;0.80;;;;;;;-145.69;53.78;52262.19;5116522;28;20212;-83
2023/11/08 09:04:22;;;;;;;1.37;0.60;;;;;;;-145.69;54.31;52230.50;5118141;28;20198;-83
2023/11/08 09:06:48;;;;;;;1.77;0.83;;;;;;;-145.69;54.01;52274.06;5117303;28;20240;-83
2023/11/08 09:09:15;;;;;;;2.87;0.80;;;;;;;-145.69;53.37;52260.22;5116500;28;20212;-83
2023/11/08 09:11:42;;;;;;;1.57;0.90;;;;;;;-145.69;53.53;52254.28;5117493;28;20207;-83
2023/11/08 09:14:09;;;;;;;1.03;0.60;;;;;;;-145.69;52.62;52246.34;5116420;28;20189;-83
2023/11/08 09:16:37;;;;;;;1.60;0.70;;;;;;;-145.69;52.46;52254.28;5116870;28;20209;-81
2023/11/08 09:19:04;;;;;;;3.53;1.10;;;;;;;-145.69;52.51;52232.50;5114895;28;20189;-83
2023/11/08 09:21:31;;;;;;;2.43;0.70;;;;;;;-145.69;51.99;52258.22;5114428;28;20282;-83
2023/11/08 09:23:58;;;;;;;2.33;0.80;;;;;;;-145.69;51.60;52228.53;5115687;28;20205;-83
2023/11/08 09:26:25;;;;;;;1.63;0.70;;;;;;;-145.69;51.89;52262.19;5117619;28;20202;-83
2023/11/08 09:28:52;;;;;;;1.37;0.80;;;;;;;-145.69;51.43;52248.34;5114908;28;20250;-85
2023/11/08 09:31:19;;;;;;;1.13;0.60;;;;;;;-145.69;50.64;52266.16;5114442;28;20228;-84
2023/11/08 09:33:47;;;;;;;2.10;0.77;;;;;;;-145.69;50.79;52254.28;5115052;28;20205;-83
2023/11/08 09:36:13;;;;;;;1.70;0.80;;;;;;;-145.69;50.47;52238.44;5114125;28;20204;-84
2023/11/08 09:38:40;;;;;;;3.60;0.83;;;;;;;-145.69;50.95;52246.34;5113625;28;20205;-84
2023/11/08 09:41:06;;;;;;;0.90;0.70;;;;;;;-145.69;51.06;52258.22;5113790;28;20194;-85
2023/11/08 09:43:36;;;;;;;1.63;0.80;;;;;;;-145.69;51.30;52264.16;5113118;28;20197;-85
2023/11/08 09:46:05;;;;;;;3.70;0.70;;;;;;;-145.69;50.55;52250.31;5113834;28;20219;-84
2023/11/08 09:48:32;;;;;;;2.60;0.90;;;;;;;-145.69;51.02;52270.13;5115717;28;20193;-85
2023/11/08 09:51:00;;;;;;;1.90;0.90;;;;;;;-145.69;50.11;52270.13;5114617;28;20232;-82
2023/11/08 09:53:26;;;;;;;1.97;0.90;;;;;;;-145.69;50.57;52238.44;5112210;28;20644;-84
2023/11/08 09:55:58;;;;;;;1.03;0.80;;;;;;;-145.69;50.19;52246.34;5113885;28;20197;-83
2023/11/08 09:58:25;;;;;;;2.80;1.00;;;;;;;-145.69;50.01;52218.63;5113873;28;20383;-84
2023/11/08 10:00:55;;;;;;;2.40;0.67;;;;;;;-145.69;50.34;52238.44;5113063;28;20201;-84
2023/11/08 10:03:24;;;;;;;2.07;0.60;;;;;;;-145.69;50.03;52214.66;5113682;28;20194;-82
2023/11/08 10:05:51;;;;;;;2.90;0.90;;;;;;;-145.69;49.56;52234.47;5112676;28;20260;-83
2023/11/08 10:08:19;;;;;;;3.90;1.13;;;;;;;-145.69;48.98;52278.03;5113302;28;20586;-84
2023/11/08 10:10:48;;;;;;;2.23;0.87;;;;;;;-145.69;48.89;52254.28;5113368;28;20695;-85
2023/11/08 10:13:15;;;;;;;4.27;1.00;;;;;;;-145.69;49.78;52226.53;5113216;28;20194;-83
2023/11/08 10:15:42;;;;;;;5.30;1.13;;;;;;;-145.69;48.04;52240.41;5113103;28;20229;-84
2023/11/08 10:18:10;;;;;;;2.58;0.90;;;;;;;-145.69;48.59;52218.63;5113015;28;20208;-84
2023/11/08 10:20:37;;;;;;;3.87;1.10;;;;;;;-145.69;48.16;52222.59;5112783;28;20624;-83
2023/11/08 10:23:05;;;;;;;1.27;0.80;;;;;;;-145.69;49.55;52208.72;5111050;28;20209;-83
2023/11/08 10:25:33;;;;;;;1.35;1.00;;;;;;;-145.69;49.53;52198.81;5113201;28;20619;-83
2023/11/08 10:28:05;;;;;;;1.77;1.00;;;;;;;-145.69;49.23;52240.41;5112985;28;20193;-83
2023/11/08 10:30:35;;;;;;;2.28;1.02;;;;;;;-145.69;47.35;52206.75;5113183;28;20225;-83
2023/11/08 10:33:08;;;;;;;1.58;0.70;;;;;;;-145.69;46.99;52230.50;5113215;28;20194;-83
2023/11/08 10:35:37;;;;;;;2.67;0.82;;;;;;;-145.69;46.21;52218.63;5113120;28;20198;-83
2023/11/08 10:38:05;;;;;;;2.47;1.05;;;;;;;-145.69;47.05;52198.81;5113212;28;20201;-83
2023/11/08 10:40:33;;;;;;;1.75;0.82;;;;;;;-145.69;46.86;52192.88;5112616;28;20258;-83
2023/11/08 10:43:04;;;;;;;1.05;0.80;;;;;;;-145.69;45.77;52190.91;5113555;28;20204;-84
2023/11/08 10:45:32;;;;;;;1.15;0.80;;;;;;;-145.69;46.58;52194.88;5113812;28;20201;-84
2023/11/08 10:48:00;;;;;;;2.58;0.60;;;;;;;-145.69;46.33;52226.53;5113451;28;20216;-83
2023/11/08 10:50:27;;;;;;;1.83;0.60;;;;;;;-145.69;46.33;52238.44;5113024;28;20229;-84
2023/11/08 10:52:54;;;;;;;1.33;0.68;;;;;;;-145.69;45.88;52194.88;5111910;28;20194;-83
2023/11/08 10:55:25;;;;;;;3.72;0.75;;;;;;;-145.69;45.53;52206.75;5112922;28;20209;-83
2023/11/08 10:57:55;;;;;;;2.22;0.70;;;;;;;-145.69;44.07;52200.81;5113216;28;20301;-82
2023/11/08 11:00:24;;;;;;;1.55;0.70;;;;;;;-145.69;43.87;52179.03;5112971;28;20648;-84
2023/11/08 11:02:55;;;;;;;1.67;0.85;;;;;;;-145.69;45.73;52196.84;5112422;28;20193;-84
2023/11/08 11:05:22;;;;;;;2.65;0.88;;;;;;;-145.69;45.65;52236.44;5115061;28;20201;-83
2023/11/08 11:07:50;;;;;;;0.75;0.60;;;;;;;-145.69;44.09;52141.41;5116642;28;20200;-84
2023/11/08 11:10:17;;;;;;;2.17;0.80;;;;;;;-145.69;43.43;52222.59;5116781;28;20221;-82
2023/11/08 11:12:59;;;;;;;2.05;0.70;;;;;;;-145.69;44.57;52167.13;5116439;28;20202;-83
2023/11/08 11:15:33;;;;;;;2.13;0.70;;;;;;;-145.69;44.17;52186.94;5114478;28;20201;-84
2023/11/08 11:18:02;;;;;;;2.45;0.52;;;;;;;-145.69;43.66;52167.13;5116473;28;20199;-83